createdAt,value
2023-12-08T00:00:01.639Z,44.08
2023-12-08T00:02:30.119Z,44.25
2023-12-08T00:04:58.479Z,52.60
2023-12-08T00:07:27.812Z,59.20
2023-12-08T00:09:56.342Z,49.33
2023-12-08T00:12:24.660Z,55.78
2023-12-08T00:14:54.519Z,57.63
2023-12-08T00:17:22.888Z,53.45
2023-12-08T00:19:53.060Z,54.58
2023-12-08T00:22:22.027Z,62.03
2023-12-08T00:24:50.393Z,44.08
2023-12-08T00:27:18.723Z,57.13
2023-12-08T00:29:47.065Z,39.85
2023-12-08T00:32:17.563Z,49.10
2023-12-08T00:34:47.499Z,51.00
2023-12-08T00:37:15.905Z,59.50
2023-12-08T00:39:44.236Z,46.00
2023-12-08T00:42:12.600Z,48.88
2023-12-08T00:44:40.958Z,61.95
2023-12-08T00:47:09.318Z,43.58
2023-12-08T00:49:39.032Z,49.78
2023-12-08T00:52:07.693Z,55.55
2023-12-08T00:54:36.031Z,45.60
2023-12-08T00:57:04.816Z,37.33
2023-12-08T00:59:33.213Z,47.15
2023-12-08T01:02:02.501Z,54.03
2023-12-08T01:04:30.771Z,55.30
2023-12-08T01:07:00.567Z,48.17
2023-12-08T01:09:28.956Z,46.92
2023-12-08T01:11:57.350Z,45.17
2023-12-08T01:14:25.830Z,52.67
2023-12-08T01:16:54.241Z,46.15
2023-12-08T01:19:22.610Z,49.55
2023-12-08T01:21:51.130Z,52.63
2023-12-08T01:24:21.116Z,49.90
2023-12-08T01:26:49.559Z,46.33
2023-12-08T01:29:18.109Z,38.08
2023-12-08T01:31:46.887Z,54.50
2023-12-08T01:34:15.637Z,49.13
2023-12-08T01:36:44.650Z,52.33
2023-12-08T01:39:13.983Z,58.22
2023-12-08T01:41:44.282Z,46.50
2023-12-08T01:44:12.687Z,48.88
2023-12-08T01:46:40.993Z,50.45
2023-12-08T01:49:09.456Z,48.83
2023-12-08T01:51:37.841Z,60.03
2023-12-08T01:54:06.578Z,49.67
2023-12-08T01:56:35.075Z,51.05
2023-12-08T01:59:04.860Z,54.10
2023-12-08T02:01:33.196Z,49.63
2023-12-08T02:04:01.971Z,47.28
2023-12-08T02:06:30.349Z,58.10
2023-12-08T02:08:58.704Z,52.38
2023-12-08T02:11:27.080Z,53.30
2023-12-08T02:13:55.449Z,51.88
2023-12-08T02:16:30.170Z,51.67
2023-12-08T02:18:58.745Z,52.10
2023-12-08T02:21:27.238Z,57.67
2023-12-08T02:23:56.972Z,52.63
2023-12-08T02:26:25.353Z,53.60
2023-12-08T02:28:53.665Z,60.55
2023-12-08T02:31:26.576Z,58.78
2023-12-08T02:33:55.119Z,50.97
2023-12-08T02:36:23.666Z,54.20
2023-12-08T02:38:52.481Z,50.10
2023-12-08T02:41:22.292Z,44.35
2023-12-08T02:43:50.665Z,50.50
2023-12-08T02:46:19.040Z,57.00
2023-12-08T02:48:54.347Z,50.70
2023-12-08T02:51:23.814Z,47.60
2023-12-08T02:53:53.809Z,48.78
2023-12-08T02:56:23.641Z,48.45
2023-12-08T02:58:51.994Z,42.23
2023-12-08T03:01:20.401Z,54.00
2023-12-08T03:03:48.833Z,53.22
2023-12-08T03:06:17.239Z,49.67
2023-12-08T03:08:45.628Z,48.75
2023-12-08T03:11:14.005Z,46.50
2023-12-08T03:13:43.657Z,47.03
2023-12-08T03:16:11.966Z,51.30
2023-12-08T03:18:40.363Z,51.78
2023-12-08T03:21:09.028Z,46.77
2023-12-08T03:23:37.415Z,47.28
2023-12-08T03:26:06.544Z,53.95
2023-12-08T03:28:34.881Z,44.00
2023-12-08T03:31:04.733Z,50.88
2023-12-08T03:33:33.220Z,47.80
2023-12-08T03:36:02.092Z,45.27
2023-12-08T03:38:30.501Z,51.88
2023-12-08T03:40:58.894Z,46.83
2023-12-08T03:43:27.229Z,52.77
2023-12-08T03:45:55.553Z,43.75
2023-12-08T03:48:25.431Z,46.90
2023-12-08T03:50:53.925Z,45.85
2023-12-08T03:53:22.263Z,49.37
2023-12-08T03:55:50.743Z,42.75
2023-12-08T03:58:19.086Z,54.05
2023-12-08T04:00:47.498Z,51.85
2023-12-08T04:03:15.866Z,45.30
2023-12-08T04:05:45.798Z,46.60
2023-12-08T04:08:14.188Z,43.25
2023-12-08T04:10:42.599Z,37.85
2023-12-08T04:13:10.915Z,43.83
2023-12-08T04:15:39.981Z,45.40
2023-12-08T04:18:09.040Z,47.78
2023-12-08T04:20:37.600Z,44.28
2023-12-08T04:23:07.530Z,51.17
2023-12-08T04:25:35.914Z,43.15
2023-12-08T04:28:05.399Z,45.20
2023-12-08T04:30:33.762Z,40.63
2023-12-08T04:33:02.137Z,40.65
2023-12-08T04:35:30.548Z,45.65
2023-12-08T04:37:58.833Z,42.00
2023-12-08T04:40:28.528Z,41.22
2023-12-08T04:42:56.935Z,49.92
2023-12-08T04:45:25.333Z,45.95
2023-12-08T04:47:53.819Z,44.40
2023-12-08T04:50:22.318Z,44.10
2023-12-08T04:52:50.628Z,42.97
2023-12-08T04:55:19.003Z,44.63
2023-12-08T04:57:48.785Z,44.75
2023-12-08T05:00:18.888Z,43.08
2023-12-08T05:02:49.087Z,44.22
2023-12-08T05:05:17.600Z,46.05
2023-12-08T05:07:46.009Z,45.28
2023-12-08T05:10:14.508Z,47.63
2023-12-08T05:12:42.849Z,44.30
2023-12-08T05:15:13.188Z,40.63
2023-12-08T05:17:42.059Z,47.30
2023-12-08T05:20:13.862Z,42.10
2023-12-08T05:22:42.148Z,46.22
2023-12-08T05:25:10.834Z,47.92
2023-12-08T05:27:39.205Z,41.05
2023-12-08T05:30:09.741Z,39.55
2023-12-08T05:32:39.716Z,41.45
2023-12-08T05:35:08.723Z,49.03
2023-12-08T05:37:36.986Z,44.20
2023-12-08T05:40:08.069Z,41.28
2023-12-08T05:42:36.400Z,36.78
2023-12-08T05:45:05.600Z,42.00
2023-12-08T05:47:34.416Z,40.63
2023-12-08T05:50:05.808Z,48.25
2023-12-08T05:52:34.362Z,45.15
2023-12-08T05:55:02.865Z,42.28
2023-12-08T05:57:31.817Z,49.55
2023-12-08T06:00:00.480Z,42.77
2023-12-08T06:02:28.961Z,39.10
2023-12-08T06:04:57.315Z,41.97
2023-12-08T06:07:27.523Z,38.67
2023-12-08T06:09:56.080Z,43.88
2023-12-08T06:12:24.491Z,46.45
2023-12-08T06:14:52.883Z,38.97
2023-12-08T06:17:21.208Z,39.25
2023-12-08T06:19:49.855Z,48.33
2023-12-08T06:22:18.169Z,32.90
2023-12-08T06:24:47.863Z,42.45
2023-12-08T06:27:16.718Z,42.03
2023-12-08T06:29:45.224Z,42.58
2023-12-08T06:32:13.635Z,37.45
2023-12-08T06:34:42.008Z,49.05
2023-12-08T06:37:10.340Z,41.17
2023-12-08T06:39:40.564Z,42.20
2023-12-08T06:42:10.471Z,40.17
2023-12-08T06:44:38.885Z,49.38
2023-12-08T06:47:09.363Z,41.83
2023-12-08T06:49:37.910Z,49.40
2023-12-08T06:52:07.110Z,64.40
2023-12-08T06:54:35.482Z,67.28
2023-12-08T06:57:03.924Z,65.78
2023-12-08T06:59:33.642Z,62.78
2023-12-08T07:02:01.937Z,58.75
2023-12-08T07:04:30.279Z,56.10
2023-12-08T07:06:58.650Z,60.78
2023-12-08T07:09:27.458Z,69.85
2023-12-08T07:11:56.597Z,64.43
2023-12-08T07:14:25.144Z,67.80
2023-12-08T07:16:55.099Z,68.25
2023-12-08T07:19:23.571Z,56.25
2023-12-08T07:21:51.973Z,55.70
2023-12-08T07:24:20.267Z,53.45
2023-12-08T07:26:48.543Z,59.22
2023-12-08T07:29:16.948Z,48.47
2023-12-08T07:31:45.248Z,51.75
2023-12-08T07:34:15.065Z,51.85
2023-12-08T07:36:43.466Z,52.92
2023-12-08T07:39:11.965Z,44.97
2023-12-08T07:41:40.293Z,51.03
2023-12-08T07:44:08.613Z,47.83
2023-12-08T07:46:37.062Z,50.85
2023-12-08T07:49:05.544Z,44.65
2023-12-08T07:51:35.776Z,50.17
2023-12-08T07:54:04.913Z,52.08
2023-12-08T07:56:34.690Z,47.20
2023-12-08T07:59:03.116Z,40.83
2023-12-08T08:01:32.752Z,40.97
2023-12-08T08:04:01.183Z,42.67
2023-12-08T08:06:29.744Z,41.95
2023-12-08T08:08:59.533Z,50.92
2023-12-08T08:11:27.822Z,48.15
2023-12-08T08:13:56.169Z,44.88
2023-12-08T08:16:24.511Z,43.03
2023-12-08T08:18:52.952Z,42.22
2023-12-08T08:21:21.378Z,47.55
2023-12-08T08:23:51.625Z,41.38
2023-12-08T08:26:21.320Z,45.03
2023-12-08T08:28:49.708Z,46.50
2023-12-08T08:31:19.246Z,42.88
2023-12-08T08:33:47.780Z,44.22
2023-12-08T08:36:16.267Z,50.45
2023-12-08T08:38:44.665Z,48.83
2023-12-08T08:41:14.670Z,44.50
2023-12-08T08:43:45.519Z,42.80
2023-12-08T08:46:13.871Z,42.60
2023-12-08T08:48:42.360Z,44.88
2023-12-08T08:51:11.591Z,44.28
2023-12-08T08:53:39.994Z,35.78
2023-12-08T08:56:09.081Z,39.33
2023-12-08T08:58:37.427Z,40.88
2023-12-08T09:01:07.593Z,45.65
2023-12-08T09:03:36.109Z,33.60
2023-12-08T09:06:05.445Z,32.65
2023-12-08T09:08:33.987Z,33.90
2023-12-08T09:11:02.340Z,37.45
2023-12-08T09:13:32.820Z,34.45
2023-12-08T09:16:01.131Z,35.58
2023-12-08T09:18:29.861Z,34.10
2023-12-08T09:20:59.553Z,35.33
2023-12-08T09:23:27.925Z,34.58
2023-12-08T09:25:56.361Z,31.05
2023-12-08T09:28:24.901Z,33.20
2023-12-08T09:30:53.161Z,29.42
2023-12-08T09:33:24.760Z,30.25
2023-12-08T09:35:56.313Z,32.40
2023-12-08T09:38:31.493Z,34.00
2023-12-08T09:41:03.115Z,27.08
2023-12-08T09:43:36.849Z,25.50
2023-12-08T09:46:05.487Z,28.90
2023-12-08T09:48:33.939Z,29.38
2023-12-08T09:51:04.678Z,29.37
2023-12-08T09:53:33.048Z,26.77
2023-12-08T09:56:01.306Z,30.08
2023-12-08T09:58:31.108Z,27.95
2023-12-08T10:00:59.562Z,32.55
2023-12-08T10:03:28.036Z,33.63
2023-12-08T10:05:57.047Z,32.00
2023-12-08T10:08:26.942Z,33.83
2023-12-08T10:10:55.282Z,28.73
2023-12-08T10:13:23.579Z,31.73
2023-12-08T10:15:52.141Z,30.30
2023-12-08T10:18:27.300Z,30.05
2023-12-08T10:21:15.504Z,30.20
2023-12-08T10:23:46.489Z,28.50
2023-12-08T10:26:15.163Z,31.93
2023-12-08T10:28:44.072Z,31.33
2023-12-08T10:31:12.388Z,32.42
2023-12-08T10:33:42.914Z,25.33
2023-12-08T10:36:11.961Z,30.93
2023-12-08T10:38:41.143Z,30.58
2023-12-08T10:41:10.974Z,29.92
2023-12-08T10:43:40.674Z,28.15
2023-12-08T10:46:09.478Z,27.73
2023-12-08T10:48:38.872Z,28.45
2023-12-08T10:51:07.695Z,28.80
2023-12-08T10:53:36.041Z,28.93
2023-12-08T10:56:08.884Z,24.07
2023-12-08T10:58:42.467Z,27.60
2023-12-08T11:01:13.805Z,26.80
2023-12-08T11:03:51.872Z,30.50
2023-12-08T11:06:29.785Z,25.07
2023-12-08T11:08:59.675Z,28.30
2023-12-08T11:11:28.524Z,27.60
2023-12-08T11:14:03.743Z,24.40
2023-12-08T11:16:40.368Z,24.33
2023-12-08T11:19:09.041Z,25.30
2023-12-08T11:21:37.671Z,26.07
2023-12-08T11:24:09.217Z,22.20
2023-12-08T11:26:41.941Z,20.37
2023-12-08T11:29:16.995Z,23.65
2023-12-08T11:31:49.088Z,19.67
2023-12-08T11:34:20.292Z,21.83
2023-12-08T11:36:48.783Z,18.87
2023-12-08T11:39:45.855Z,21.17
2023-12-08T11:42:17.407Z,22.10
2023-12-08T11:44:48.080Z,20.08
2023-12-08T11:47:17.907Z,26.45
2023-12-08T11:49:48.231Z,20.80
2023-12-08T11:52:19.570Z,25.47
2023-12-08T11:55:10.432Z,18.43
2023-12-08T11:57:42.719Z,20.27
2023-12-08T12:00:14.433Z,22.47
2023-12-08T12:02:44.178Z,25.93
2023-12-08T12:05:12.736Z,20.60
2023-12-08T12:07:41.292Z,20.48
2023-12-08T12:10:12.119Z,24.17
2023-12-08T12:12:43.778Z,21.65
2023-12-08T12:15:13.673Z,20.00
2023-12-08T12:17:43.047Z,24.70
2023-12-08T12:20:12.441Z,22.27
2023-12-08T12:22:41.654Z,20.42
2023-12-08T12:25:11.673Z,21.27
2023-12-08T12:27:43.356Z,25.73
2023-12-08T12:30:14.211Z,29.48
2023-12-08T12:32:42.725Z,25.10
2023-12-08T12:35:11.906Z,21.00
2023-12-08T12:37:40.265Z,22.90
2023-12-08T12:40:10.179Z,20.50
2023-12-08T12:42:45.635Z,18.77
2023-12-08T12:45:28.550Z,24.90
2023-12-08T12:48:05.806Z,25.02
2023-12-08T12:50:46.481Z,26.03
2023-12-08T12:53:15.576Z,23.57
2023-12-08T12:55:44.074Z,23.87
2023-12-08T12:58:20.825Z,23.17
2023-12-08T13:00:51.046Z,25.02
2023-12-08T13:03:22.125Z,23.53
2023-12-08T13:05:53.556Z,20.83
2023-12-08T13:08:22.235Z,26.35
2023-12-08T13:10:51.064Z,26.83
2023-12-08T13:13:19.495Z,22.42
2023-12-08T13:15:48.260Z,24.35
2023-12-08T13:18:18.541Z,23.87
2023-12-08T13:20:47.160Z,27.20
2023-12-08T13:23:16.026Z,19.03
2023-12-08T13:25:44.372Z,27.07
2023-12-08T13:28:12.676Z,25.50
2023-12-08T13:30:40.972Z,23.23
2023-12-08T13:33:10.088Z,23.17
2023-12-08T13:35:39.955Z,26.73
2023-12-08T13:38:08.365Z,27.77
2023-12-08T13:40:36.719Z,29.30
2023-12-08T13:43:05.008Z,24.73
2023-12-08T13:45:33.692Z,22.85
2023-12-08T13:48:02.328Z,22.65
2023-12-08T13:50:31.246Z,28.08
2023-12-08T13:53:01.433Z,29.55
2023-12-08T13:55:29.775Z,23.25
2023-12-08T13:57:58.569Z,24.93
2023-12-08T14:00:28.026Z,24.60
2023-12-08T14:02:56.839Z,28.90
2023-12-08T14:05:25.222Z,25.02
2023-12-08T14:07:53.685Z,26.23
2023-12-08T14:10:23.654Z,30.92
2023-12-08T14:12:51.967Z,26.83
2023-12-08T14:15:20.410Z,26.98
2023-12-08T14:17:50.162Z,30.25
2023-12-08T14:20:18.549Z,27.40
2023-12-08T14:22:48.341Z,24.05
2023-12-08T14:25:17.055Z,27.45
2023-12-08T14:27:46.953Z,27.25
2023-12-08T14:30:15.603Z,30.30
2023-12-08T14:32:44.147Z,24.00
2023-12-08T14:35:19.367Z,27.50
2023-12-08T14:37:55.001Z,27.30
2023-12-08T14:40:24.808Z,42.92
2023-12-08T14:42:54.903Z,27.30
2023-12-08T14:45:23.419Z,24.48
2023-12-08T14:47:52.013Z,27.65
2023-12-08T14:50:20.718Z,25.77
2023-12-08T14:52:49.159Z,21.40
2023-12-08T14:55:18.740Z,26.45
2023-12-08T14:57:47.078Z,30.70
2023-12-08T15:00:17.817Z,27.63
2023-12-08T15:02:46.511Z,21.45
2023-12-08T15:05:15.241Z,25.77
2023-12-08T15:07:43.850Z,28.13
2023-12-08T15:10:12.329Z,27.38
2023-12-08T15:12:40.829Z,23.58
2023-12-08T15:15:10.494Z,24.95
2023-12-08T15:17:40.641Z,24.10
2023-12-08T15:20:10.959Z,27.58
2023-12-08T15:22:40.827Z,25.45
2023-12-08T15:25:10.169Z,23.08
2023-12-08T15:27:38.577Z,22.58
2023-12-08T15:30:08.600Z,25.15
2023-12-08T15:32:37.422Z,19.48
2023-12-08T15:35:08.415Z,26.58
2023-12-08T15:37:36.861Z,21.20
2023-12-08T15:40:05.939Z,29.42
2023-12-08T15:42:34.332Z,23.92
2023-12-08T15:45:04.151Z,28.30
2023-12-08T15:47:34.461Z,25.63
2023-12-08T15:50:04.534Z,24.45
2023-12-08T15:52:34.311Z,24.30
2023-12-08T15:55:02.546Z,22.58
2023-12-08T15:57:30.874Z,26.88
2023-12-08T15:59:59.598Z,29.67
2023-12-08T16:02:28.248Z,29.75
2023-12-08T16:04:56.721Z,27.35
2023-12-08T16:07:27.063Z,22.27
2023-12-08T16:09:56.981Z,21.20
2023-12-08T16:12:25.479Z,27.80
2023-12-08T16:14:54.038Z,32.75
2023-12-08T16:17:22.582Z,33.90
2023-12-08T16:19:50.954Z,29.03
2023-12-08T16:22:19.459Z,28.23
2023-12-08T16:24:48.367Z,30.87
2023-12-08T16:27:18.070Z,27.37
2023-12-08T16:29:46.648Z,25.70
2023-12-08T16:32:15.140Z,28.27
2023-12-08T16:34:43.595Z,31.13
2023-12-08T16:37:11.107Z,24.40
2023-12-08T16:39:39.619Z,25.27
2023-12-08T16:42:08.113Z,26.15
2023-12-08T16:44:37.869Z,27.40
2023-12-08T16:47:06.877Z,25.17
2023-12-08T16:49:35.773Z,23.40
2023-12-08T16:52:04.436Z,30.08
2023-12-08T16:54:32.891Z,24.20
2023-12-08T16:57:01.439Z,28.67
2023-12-08T16:59:30.777Z,26.73
2023-12-08T17:02:00.440Z,22.63
2023-12-08T17:04:28.760Z,31.63
2023-12-08T17:06:59.987Z,29.00
2023-12-08T17:09:28.834Z,27.65
2023-12-08T17:11:57.444Z,25.23
2023-12-08T17:14:25.846Z,27.00
2023-12-08T17:16:54.260Z,35.57
2023-12-08T17:19:24.034Z,30.80
2023-12-08T17:21:52.295Z,31.30
2023-12-08T17:24:21.803Z,27.20
2023-12-08T17:26:53.493Z,26.13
2023-12-08T17:29:21.937Z,29.15
2023-12-08T17:31:50.261Z,25.20
2023-12-08T17:34:22.592Z,26.70
2023-12-08T17:36:53.176Z,26.60
2023-12-08T17:39:21.687Z,28.80
2023-12-08T17:41:50.391Z,24.50
2023-12-08T17:44:18.736Z,31.00
2023-12-08T17:46:47.093Z,27.98
2023-12-08T17:49:15.610Z,23.37
2023-12-08T17:51:44.063Z,29.27
2023-12-08T17:54:14.011Z,25.30
2023-12-08T17:56:42.457Z,25.67
2023-12-08T17:59:10.808Z,23.70
2023-12-08T18:01:39.110Z,27.10
2023-12-08T18:04:07.419Z,24.33
2023-12-08T18:06:35.866Z,26.35
2023-12-08T18:09:09.442Z,28.05
2023-12-08T18:11:39.246Z,32.58
2023-12-08T18:14:07.546Z,25.83
2023-12-08T18:16:45.115Z,30.27
2023-12-08T18:19:15.280Z,28.37
2023-12-08T18:21:43.667Z,29.15
2023-12-08T18:24:13.742Z,30.20
2023-12-08T18:26:43.840Z,35.92
2023-12-08T18:29:11.643Z,32.47
2023-12-08T18:31:40.161Z,34.83
2023-12-08T18:34:09.393Z,31.02
2023-12-08T18:36:38.473Z,30.95
2023-12-08T18:39:07.925Z,28.50
2023-12-08T18:41:36.620Z,29.17
2023-12-08T18:44:06.818Z,30.25
2023-12-08T18:46:35.305Z,28.70
2023-12-08T18:49:04.800Z,28.92
2023-12-08T18:51:34.540Z,33.85
2023-12-08T18:54:03.103Z,31.95
2023-12-08T18:56:31.507Z,28.63
2023-12-08T18:58:59.819Z,30.42
2023-12-08T19:01:29.616Z,30.35
2023-12-08T19:03:58.059Z,31.50
2023-12-08T19:06:26.520Z,28.65
2023-12-08T19:08:55.125Z,27.25
2023-12-08T19:11:23.729Z,27.52
2023-12-08T19:13:52.864Z,31.20
2023-12-08T19:16:21.340Z,31.17
2023-12-08T19:18:51.413Z,31.98
2023-12-08T19:21:19.941Z,33.60
2023-12-08T19:23:48.371Z,30.00
2023-12-08T19:26:16.842Z,30.67
2023-12-08T19:28:45.840Z,25.83
2023-12-08T19:31:14.252Z,27.85
2023-12-08T19:33:43.127Z,27.30
2023-12-08T19:36:16.053Z,30.67
2023-12-08T19:38:45.502Z,32.85
2023-12-08T19:41:13.846Z,30.55
2023-12-08T19:43:42.237Z,26.80
2023-12-08T19:46:10.662Z,33.45
2023-12-08T19:48:39.231Z,27.80
2023-12-08T19:51:07.944Z,31.45
2023-12-08T19:53:37.865Z,31.70
2023-12-08T19:56:07.388Z,25.42
2023-12-08T19:58:35.678Z,31.25
2023-12-08T20:01:06.256Z,28.55
2023-12-08T20:03:34.837Z,32.10
2023-12-08T20:06:03.332Z,30.55
2023-12-08T20:08:31.696Z,29.27
2023-12-08T20:11:02.165Z,32.13
2023-12-08T20:13:30.579Z,31.67
2023-12-08T20:15:58.940Z,30.92
2023-12-08T20:18:28.604Z,26.52
2023-12-08T20:20:57.108Z,29.52
2023-12-08T20:23:26.115Z,33.05
2023-12-08T20:25:54.539Z,34.22
2023-12-08T20:28:24.294Z,31.95
2023-12-08T20:30:52.644Z,33.20
2023-12-08T20:33:21.012Z,30.50
2023-12-08T20:35:49.425Z,30.48
2023-12-08T20:38:17.865Z,32.53
2023-12-08T20:40:48.225Z,29.80
2023-12-08T20:45:48.631Z,29.65
2023-12-08T20:48:17.145Z,31.42
2023-12-08T20:50:45.566Z,36.75
2023-12-08T20:53:14.900Z,32.95
2023-12-08T20:55:43.380Z,31.95
2023-12-08T20:58:12.143Z,31.60
2023-12-08T21:00:40.710Z,34.35
2023-12-08T21:03:10.598Z,33.13
2023-12-08T21:05:38.996Z,37.75
2023-12-08T21:08:07.771Z,32.63
2023-12-08T21:10:36.111Z,33.22
2023-12-08T21:13:04.611Z,33.40
2023-12-08T21:15:32.940Z,32.58
2023-12-08T21:18:01.336Z,34.80
2023-12-08T21:20:31.082Z,33.40
2023-12-08T21:22:59.371Z,36.25
2023-12-08T21:25:27.676Z,32.25
2023-12-08T21:27:56.341Z,33.90
2023-12-08T21:30:24.987Z,39.40
2023-12-08T21:32:53.516Z,32.58
2023-12-08T21:35:22.253Z,33.85
2023-12-08T21:37:51.937Z,33.45
2023-12-08T21:40:21.993Z,34.30
2023-12-08T21:42:52.965Z,39.80
2023-12-08T21:45:22.687Z,35.77
2023-12-08T21:47:51.516Z,36.20
2023-12-08T21:50:20.063Z,32.80
2023-12-08T21:52:51.020Z,37.33
2023-12-08T21:55:22.202Z,33.92
2023-12-08T21:57:50.855Z,35.05
2023-12-08T22:00:19.825Z,36.35
2023-12-08T22:02:48.329Z,33.90
2023-12-08T22:05:16.897Z,34.38
2023-12-08T22:07:45.407Z,34.33
2023-12-08T22:10:13.936Z,35.55
2023-12-08T22:12:43.651Z,34.05
2023-12-08T22:15:12.261Z,40.37
2023-12-08T22:17:40.636Z,33.00
2023-12-08T22:20:10.862Z,32.08
2023-12-08T22:22:40.426Z,38.17
2023-12-08T22:25:11.476Z,40.85
2023-12-08T22:27:40.003Z,37.80
2023-12-08T22:30:11.392Z,34.07
2023-12-08T22:32:39.923Z,35.53
2023-12-08T22:35:08.947Z,36.97
2023-12-08T22:37:38.066Z,39.90
2023-12-08T22:40:08.570Z,37.20
2023-12-08T22:42:36.943Z,43.10
2023-12-08T22:45:06.696Z,32.90
2023-12-08T22:47:36.447Z,37.53
2023-12-08T22:50:05.546Z,39.80
2023-12-08T22:52:34.060Z,36.83
2023-12-08T22:55:02.567Z,39.27
2023-12-08T22:57:31.002Z,40.55
2023-12-08T22:59:59.422Z,38.00
2023-12-08T23:02:27.966Z,31.95
2023-12-08T23:04:58.141Z,42.13
2023-12-08T23:07:26.616Z,40.30
2023-12-08T23:09:55.012Z,36.47
2023-12-08T23:12:23.522Z,37.30
2023-12-08T23:14:51.905Z,34.75
2023-12-08T23:17:21.340Z,40.80
2023-12-08T23:19:49.686Z,43.57
2023-12-08T23:22:19.398Z,36.97
2023-12-08T23:24:47.761Z,38.50
2023-12-08T23:27:16.252Z,42.40
2023-12-08T23:29:44.674Z,36.90
2023-12-08T23:32:13.047Z,40.13
2023-12-08T23:34:41.462Z,35.20
2023-12-08T23:37:10.031Z,33.43
2023-12-08T23:39:40.557Z,35.60
2023-12-08T23:42:09.132Z,39.50
2023-12-08T23:44:37.595Z,36.35
2023-12-08T23:47:06.277Z,46.47
2023-12-08T23:49:34.716Z,39.75
2023-12-08T23:52:03.181Z,37.40
2023-12-08T23:54:31.653Z,37.08
2023-12-08T23:57:01.575Z,39.73
2023-12-08T23:59:29.932Z,39.97
